Oglasa — ITMG — position and weather

sailwx.info

Track history (hours):
 
Tides and Currents Weather Stations Pressure Air Temp Water Temp Dewpoint Dewpoint Depression Visibility Wind Speed Wind Dir Waves Ship Positions

Oglasa

Last reported at 2017-Apr-27 09:56 UTC. Time now 2017-Apr-27 15:02 UTC.
Position N 42°54' E 010°32'.

Length 91 m; draft 3.8 m.

Type: Ship. MMSI: 247046800.

Date/timePositionNaut miles runAvg speedWind from/ knotsBaromVisibWave heightAir tempDewpointWater temp
2017-Apr-27 09:56N 42°54' E 010°32'  
2017-Apr-24 16:11N 42°52' E 010°24'715.5
2017-Apr-24 15:44N 42°55' E 010°33'1 1.5
2017-Apr-24 15:02N 42°56' E 010°34'115.4
2017-Apr-24 15:00N 42°55' E 010°34'915.2
2017-Apr-24 14:25N 42°52' E 010°23'8 4.9
2017-Apr-24 12:43N 42°55' E 010°33'1 1.1
2017-Apr-24 11:59N 42°56' E 010°34'1 0.1
2017-Apr-23 17:52N 42°54' E 010°33'8 1.0
2017-Apr-23 10:17N 42°51' E 010°23'1 0.5
2017-Apr-23 07:19N 42°50' E 010°22'9 0.2
2017-Apr-21 08:49N 42°54' E 010°32'2 0.8
2017-Apr-21 06:39N 42°56' E 010°34'  
2017-Apr-18 12:43N 42°55' E 010°33'1 0.8
2017-Apr-18 11:58N 42°55' E 010°34'715.1
2017-Apr-18 11:30N 42°53' E 010°25'5 4.9
2017-Apr-18 10:27N 42°49' E 010°20'10 0.6
2017-Apr-17 17:51N 42°54' E 010°32'1110.5
2017-Apr-17 16:47N 42°49' E 010°19'0 0.0
2017-Apr-17 16:30N 42°49' E 010°19'1114.3
2017-Apr-17 15:43N 42°55' E 010°33'1 2.2
2017-Apr-17 15:03N 42°56' E 010°33'1 9.4
2017-Apr-17 15:00N 42°56' E 010°34'715.0
2017-Apr-17 14:30N 42°53' E 010°25'6 5.4
2017-Apr-17 13:27N 42°49' E 010°20'  
Track history (hours):
 
Tides and Currents Weather Stations Pressure Air Temp Water Temp Dewpoint Dewpoint Depression Visibility Wind Speed Wind Dir Waves Ship Positions

Oglasa

Last reported at 2017-Apr-27 09:56 UTC. Time now 2017-Apr-27 15:02 UTC.
Position N 42°54' E 010°32'.

Length 91 m; draft 3.8 m.

Type: Ship. MMSI: 247046800.

Date/timePositionNaut miles runAvg speedWind from/ knotsBaromVisibWave heightAir tempDewpointWater temp
2017-Apr-27 09:56N 42°54' E 010°32'  
2017-Apr-24 16:11N 42°52' E 010°24'715.5
2017-Apr-24 15:44N 42°55' E 010°33'1 1.5
2017-Apr-24 15:02N 42°56' E 010°34'115.4
2017-Apr-24 15:00N 42°55' E 010°34'915.2
2017-Apr-24 14:25N 42°52' E 010°23'8 4.9
2017-Apr-24 12:43N 42°55' E 010°33'1 1.1
2017-Apr-24 11:59N 42°56' E 010°34'1 0.1
2017-Apr-23 17:52N 42°54' E 010°33'8 1.0
2017-Apr-23 10:17N 42°51' E 010°23'1 0.5
2017-Apr-23 07:19N 42°50' E 010°22'9 0.2
2017-Apr-21 08:49N 42°54' E 010°32'2 0.8
2017-Apr-21 06:39N 42°56' E 010°34'  
2017-Apr-18 12:43N 42°55' E 010°33'1 0.8
2017-Apr-18 11:58N 42°55' E 010°34'715.1
2017-Apr-18 11:30N 42°53' E 010°25'5 4.9
2017-Apr-18 10:27N 42°49' E 010°20'10 0.6
2017-Apr-17 17:51N 42°54' E 010°32'1110.5
2017-Apr-17 16:47N 42°49' E 010°19'0 0.0
2017-Apr-17 16:30N 42°49' E 010°19'1114.3
2017-Apr-17 15:43N 42°55' E 010°33'1 2.2
2017-Apr-17 15:03N 42°56' E 010°33'1 9.4
2017-Apr-17 15:00N 42°56' E 010°34'715.0
2017-Apr-17 14:30N 42°53' E 010°25'6 5.4
2017-Apr-17 13:27N 42°49' E 010°20'  

Dump ship's entire track history